sensor_id;sensor_type;location;lat;lon;timestamp;P1;durP1;ratioP1;P2;durP2;ratioP2
77280;SDS011;66339;47.262;17.144;2023-02-10T00:00:21;11.23;;;8.02;;
77280;SDS011;66339;47.262;17.144;2023-02-10T00:02:50;11.45;;;7.75;;
77280;SDS011;66339;47.262;17.144;2023-02-10T00:05:22;11.93;;;8.18;;
77280;SDS011;66339;47.262;17.144;2023-02-10T00:07:52;11.80;;;8.25;;
77280;SDS011;66339;47.262;17.144;2023-02-10T00:10:25;10.18;;;7.90;;
77280;SDS011;66339;47.262;17.144;2023-02-10T00:12:58;11.57;;;7.93;;
77280;SDS011;66339;47.262;17.144;2023-02-10T00:15:25;11.65;;;8.18;;
77280;SDS011;66339;47.262;17.144;2023-02-10T00:17:59;12.35;;;8.45;;
77280;SDS011;66339;47.262;17.144;2023-02-10T00:23:06;11.25;;;8.02;;
77280;SDS011;66339;47.262;17.144;2023-02-10T00:25:36;9.93;;;7.30;;
77280;SDS011;66339;47.262;17.144;2023-02-10T00:28:04;10.68;;;8.27;;
77280;SDS011;66339;47.262;17.144;2023-02-10T00:30:38;11.32;;;7.95;;
77280;SDS011;66339;47.262;17.144;2023-02-10T00:33:08;11.65;;;8.27;;
77280;SDS011;66339;47.262;17.144;2023-02-10T00:35:39;12.07;;;8.10;;
77280;SDS011;66339;47.262;17.144;2023-02-10T00:38:09;10.43;;;8.10;;
77280;SDS011;66339;47.262;17.144;2023-02-10T00:40:41;12.52;;;7.85;;
77280;SDS011;66339;47.262;17.144;2023-02-10T00:43:12;11.60;;;7.93;;
77280;SDS011;66339;47.262;17.144;2023-02-10T00:45:50;10.98;;;7.80;;
77280;SDS011;66339;47.262;17.144;2023-02-10T00:48:31;11.35;;;7.93;;
77280;SDS011;66339;47.262;17.144;2023-02-10T00:51:02;9.35;;;7.45;;
77280;SDS011;66339;47.262;17.144;2023-02-10T00:53:36;10.45;;;8.15;;
77280;SDS011;66339;47.262;17.144;2023-02-10T00:56:10;11.43;;;8.07;;
77280;SDS011;66339;47.262;17.144;2023-02-10T00:58:46;11.90;;;7.95;;
77280;SDS011;66339;47.262;17.144;2023-02-10T01:01:22;11.75;;;8.40;;
77280;SDS011;66339;47.262;17.144;2023-02-10T01:03:57;9.43;;;7.55;;
77280;SDS011;66339;47.262;17.144;2023-02-10T01:06:28;14.00;;;8.63;;
77280;SDS011;66339;47.262;17.144;2023-02-10T01:08:58;11.82;;;7.32;;
77280;SDS011;66339;47.262;17.144;2023-02-10T01:11:27;12.07;;;7.82;;
77280;SDS011;66339;47.262;17.144;2023-02-10T01:13:54;9.95;;;7.30;;
77280;SDS011;66339;47.262;17.144;2023-02-10T01:16:24;9.85;;;7.53;;
77280;SDS011;66339;47.262;17.144;2023-02-10T01:18:51;13.15;;;8.35;;
77280;SDS011;66339;47.262;17.144;2023-02-10T01:21:28;11.63;;;7.93;;
77280;SDS011;66339;47.262;17.144;2023-02-10T01:23:55;10.20;;;7.68;;
77280;SDS011;66339;47.262;17.144;2023-02-10T01:26:25;11.40;;;8.10;;
77280;SDS011;66339;47.262;17.144;2023-02-10T01:28:59;12.32;;;7.90;;
77280;SDS011;66339;47.262;17.144;2023-02-10T01:31:27;10.68;;;7.72;;
77280;SDS011;66339;47.262;17.144;2023-02-10T01:33:58;10.05;;;7.85;;
77280;SDS011;66339;47.262;17.144;2023-02-10T01:36:32;10.55;;;7.53;;
77280;SDS011;66339;47.262;17.144;2023-02-10T01:39:03;12.00;;;7.90;;
77280;SDS011;66339;47.262;17.144;2023-02-10T01:41:34;11.15;;;8.18;;
77280;SDS011;66339;47.262;17.144;2023-02-10T01:46:53;12.60;;;8.30;;
77280;SDS011;66339;47.262;17.144;2023-02-10T01:49:28;11.70;;;7.78;;
77280;SDS011;66339;47.262;17.144;2023-02-10T01:52:07;12.75;;;8.55;;
77280;SDS011;66339;47.262;17.144;2023-02-10T01:54:41;11.63;;;7.70;;
77280;SDS011;66339;47.262;17.144;2023-02-10T01:57:24;13.25;;;7.90;;
77280;SDS011;66339;47.262;17.144;2023-02-10T01:59:59;11.43;;;7.68;;
77280;SDS011;66339;47.262;17.144;2023-02-10T02:02:38;11.27;;;8.25;;
77280;SDS011;66339;47.262;17.144;2023-02-10T02:05:44;10.82;;;7.72;;
77280;SDS011;66339;47.262;17.144;2023-02-10T02:08:08;11.40;;;8.10;;
77280;SDS011;66339;47.262;17.144;2023-02-10T02:11:05;12.40;;;7.57;;
77280;SDS011;66339;47.262;17.144;2023-02-10T02:17:06;11.20;;;7.75;;
77280;SDS011;66339;47.262;17.144;2023-02-10T02:25:48;11.07;;;7.40;;
77280;SDS011;66339;47.262;17.144;2023-02-10T02:28:24;12.40;;;7.78;;
77280;SDS011;66339;47.262;17.144;2023-02-10T02:36:37;10.73;;;7.70;;
77280;SDS011;66339;47.262;17.144;2023-02-10T02:39:18;11.00;;;7.68;;
77280;SDS011;66339;47.262;17.144;2023-02-10T02:41:59;9.82;;;6.85;;
77280;SDS011;66339;47.262;17.144;2023-02-10T02:44:35;9.82;;;6.95;;
77280;SDS011;66339;47.262;17.144;2023-02-10T02:50:05;11.73;;;7.30;;
77280;SDS011;66339;47.262;17.144;2023-02-10T02:58:41;11.97;;;6.97;;
77280;SDS011;66339;47.262;17.144;2023-02-10T03:02:05;11.50;;;7.43;;
77280;SDS011;66339;47.262;17.144;2023-02-10T03:04:26;11.95;;;7.93;;
77280;SDS011;66339;47.262;17.144;2023-02-10T03:07:01;10.63;;;7.32;;
77280;SDS011;66339;47.262;17.144;2023-02-10T03:09:34;10.50;;;7.05;;
77280;SDS011;66339;47.262;17.144;2023-02-10T03:12:10;11.98;;;8.02;;
77280;SDS011;66339;47.262;17.144;2023-02-10T03:14:38;11.30;;;7.47;;
77280;SDS011;66339;47.262;17.144;2023-02-10T03:17:08;10.98;;;7.32;;
77280;SDS011;66339;47.262;17.144;2023-02-10T03:19:42;10.68;;;7.53;;
77280;SDS011;66339;47.262;17.144;2023-02-10T03:22:10;9.80;;;7.10;;
77280;SDS011;66339;47.262;17.144;2023-02-10T03:24:46;10.25;;;7.40;;
77280;SDS011;66339;47.262;17.144;2023-02-10T03:27:19;10.95;;;7.30;;
77280;SDS011;66339;47.262;17.144;2023-02-10T03:29:50;11.45;;;7.30;;
77280;SDS011;66339;47.262;17.144;2023-02-10T03:32:25;9.05;;;6.55;;
77280;SDS011;66339;47.262;17.144;2023-02-10T03:34:58;11.48;;;7.50;;
77280;SDS011;66339;47.262;17.144;2023-02-10T03:37:31;9.60;;;6.95;;
77280;SDS011;66339;47.262;17.144;2023-02-10T03:40:03;10.50;;;7.22;;
77280;SDS011;66339;47.262;17.144;2023-02-10T03:42:38;12.25;;;7.15;;
77280;SDS011;66339;47.262;17.144;2023-02-10T03:45:14;10.05;;;7.05;;
77280;SDS011;66339;47.262;17.144;2023-02-10T03:47:53;10.68;;;7.10;;
77280;SDS011;66339;47.262;17.144;2023-02-10T03:50:26;9.50;;;7.10;;
77280;SDS011;66339;47.262;17.144;2023-02-10T03:53:00;10.73;;;7.40;;
77280;SDS011;66339;47.262;17.144;2023-02-10T03:55:27;10.10;;;7.30;;
77280;SDS011;66339;47.262;17.144;2023-02-10T03:58:00;9.57;;;6.70;;
77280;SDS011;66339;47.262;17.144;2023-02-10T04:00:32;9.68;;;7.22;;
77280;SDS011;66339;47.262;17.144;2023-02-10T04:03:05;9.70;;;7.00;;
77280;SDS011;66339;47.262;17.144;2023-02-10T04:05:32;10.52;;;7.50;;
77280;SDS011;66339;47.262;17.144;2023-02-10T04:08:06;9.95;;;7.15;;
77280;SDS011;66339;47.262;17.144;2023-02-10T04:10:56;10.65;;;7.03;;
77280;SDS011;66339;47.262;17.144;2023-02-10T04:13:33;10.57;;;7.05;;
77280;SDS011;66339;47.262;17.144;2023-02-10T04:16:08;8.65;;;6.50;;
77280;SDS011;66339;47.262;17.144;2023-02-10T04:18:49;10.73;;;7.32;;
77280;SDS011;66339;47.262;17.144;2023-02-10T04:21:17;9.50;;;6.53;;
77280;SDS011;66339;47.262;17.144;2023-02-10T04:23:52;10.05;;;6.97;;
77280;SDS011;66339;47.262;17.144;2023-02-10T04:26:22;9.13;;;6.35;;
77280;SDS011;66339;47.262;17.144;2023-02-10T04:28:56;9.15;;;6.50;;
77280;SDS011;66339;47.262;17.144;2023-02-10T04:31:33;8.73;;;6.57;;
77280;SDS011;66339;47.262;17.144;2023-02-10T04:34:04;10.60;;;7.35;;
77280;SDS011;66339;47.262;17.144;2023-02-10T04:36:34;8.77;;;6.20;;
77280;SDS011;66339;47.262;17.144;2023-02-10T04:39:07;9.52;;;6.68;;
77280;SDS011;66339;47.262;17.144;2023-02-10T04:41:39;9.63;;;6.83;;
77280;SDS011;66339;47.262;17.144;2023-02-10T04:46:45;8.90;;;6.40;;
77280;SDS011;66339;47.262;17.144;2023-02-10T04:49:16;8.70;;;6.40;;
77280;SDS011;66339;47.262;17.144;2023-02-10T04:51:55;12.15;;;6.97;;
77280;SDS011;66339;47.262;17.144;2023-02-10T04:54:22;9.98;;;7.12;;
77280;SDS011;66339;47.262;17.144;2023-02-10T04:56:53;10.32;;;6.70;;
77280;SDS011;66339;47.262;17.144;2023-02-10T04:59:27;9.85;;;6.35;;
77280;SDS011;66339;47.262;17.144;2023-02-10T05:01:54;10.40;;;7.05;;
77280;SDS011;66339;47.262;17.144;2023-02-10T05:04:24;9.43;;;6.78;;
77280;SDS011;66339;47.262;17.144;2023-02-10T05:06:54;10.25;;;7.10;;
77280;SDS011;66339;47.262;17.144;2023-02-10T05:09:24;10.52;;;7.00;;
77280;SDS011;66339;47.262;17.144;2023-02-10T05:11:57;9.85;;;6.65;;
77280;SDS011;66339;47.262;17.144;2023-02-10T05:14:25;10.30;;;6.65;;
77280;SDS011;66339;47.262;17.144;2023-02-10T05:16:55;24.02;;;12.55;;
77280;SDS011;66339;47.262;17.144;2023-02-10T05:19:31;22.08;;;13.02;;
77280;SDS011;66339;47.262;17.144;2023-02-10T05:22:01;25.80;;;14.75;;
77280;SDS011;66339;47.262;17.144;2023-02-10T05:24:35;26.08;;;15.32;;
77280;SDS011;66339;47.262;17.144;2023-02-10T05:29:38;27.33;;;16.10;;
77280;SDS011;66339;47.262;17.144;2023-02-10T05:32:11;28.35;;;17.15;;
77280;SDS011;66339;47.262;17.144;2023-02-10T05:34:40;26.90;;;16.15;;
77280;SDS011;66339;47.262;17.144;2023-02-10T05:37:16;30.27;;;17.37;;
77280;SDS011;66339;47.262;17.144;2023-02-10T05:39:50;21.42;;;13.02;;
77280;SDS011;66339;47.262;17.144;2023-02-10T05:42:20;19.80;;;12.00;;
77280;SDS011;66339;47.262;17.144;2023-02-10T05:44:58;19.92;;;12.18;;
77280;SDS011;66339;47.262;17.144;2023-02-10T05:47:25;17.75;;;11.15;;
77280;SDS011;66339;47.262;17.144;2023-02-10T05:49:58;22.52;;;11.07;;
77280;SDS011;66339;47.262;17.144;2023-02-10T05:52:28;19.23;;;10.48;;
77280;SDS011;66339;47.262;17.144;2023-02-10T05:54:56;18.80;;;11.07;;
77280;SDS011;66339;47.262;17.144;2023-02-10T05:57:29;21.00;;;10.70;;
77280;SDS011;66339;47.262;17.144;2023-02-10T06:00:05;17.92;;;10.95;;
77280;SDS011;66339;47.262;17.144;2023-02-10T06:02:33;16.42;;;10.60;;
77280;SDS011;66339;47.262;17.144;2023-02-10T06:05:03;16.08;;;10.85;;
77280;SDS011;66339;47.262;17.144;2023-02-10T06:07:31;15.93;;;9.90;;
77280;SDS011;66339;47.262;17.144;2023-02-10T06:10:07;16.75;;;10.32;;
77280;SDS011;66339;47.262;17.144;2023-02-10T06:12:39;15.77;;;9.60;;
77280;SDS011;66339;47.262;17.144;2023-02-10T06:15:09;18.50;;;10.80;;
77280;SDS011;66339;47.262;17.144;2023-02-10T06:20:06;16.40;;;9.18;;
77280;SDS011;66339;47.262;17.144;2023-02-10T06:22:40;18.05;;;9.68;;
77280;SDS011;66339;47.262;17.144;2023-02-10T06:25:14;14.43;;;9.55;;
77280;SDS011;66339;47.262;17.144;2023-02-10T06:30:14;16.75;;;9.00;;
77280;SDS011;66339;47.262;17.144;2023-02-10T06:32:41;13.75;;;9.20;;
77280;SDS011;66339;47.262;17.144;2023-02-10T06:35:12;15.27;;;9.15;;
77280;SDS011;66339;47.262;17.144;2023-02-10T06:37:42;15.02;;;9.05;;
77280;SDS011;66339;47.262;17.144;2023-02-10T06:40:16;18.17;;;9.20;;
77280;SDS011;66339;47.262;17.144;2023-02-10T06:42:43;14.77;;;8.85;;
77280;SDS011;66339;47.262;17.144;2023-02-10T06:45:14;17.70;;;9.30;;
77280;SDS011;66339;47.262;17.144;2023-02-10T06:50:11;15.18;;;9.50;;
77280;SDS011;66339;47.262;17.144;2023-02-10T06:52:46;15.13;;;9.27;;
77280;SDS011;66339;47.262;17.144;2023-02-10T06:55:15;14.63;;;9.68;;
77280;SDS011;66339;47.262;17.144;2023-02-10T06:57:45;17.75;;;12.18;;
77280;SDS011;66339;47.262;17.144;2023-02-10T07:00:12;19.27;;;12.55;;
77280;SDS011;66339;47.262;17.144;2023-02-10T07:02:40;25.95;;;16.90;;
77280;SDS011;66339;47.262;17.144;2023-02-10T07:05:14;23.55;;;14.50;;
77280;SDS011;66339;47.262;17.144;2023-02-10T07:07:44;23.00;;;13.95;;
77280;SDS011;66339;47.262;17.144;2023-02-10T07:10:20;23.42;;;15.25;;
77280;SDS011;66339;47.262;17.144;2023-02-10T07:12:50;25.50;;;15.77;;
77280;SDS011;66339;47.262;17.144;2023-02-10T07:15:25;25.37;;;16.05;;
77280;SDS011;66339;47.262;17.144;2023-02-10T07:17:52;24.08;;;15.15;;
77280;SDS011;66339;47.262;17.144;2023-02-10T07:20:26;24.50;;;15.05;;
77280;SDS011;66339;47.262;17.144;2023-02-10T07:22:55;29.77;;;16.60;;
77280;SDS011;66339;47.262;17.144;2023-02-10T07:25:28;23.08;;;14.48;;
77280;SDS011;66339;47.262;17.144;2023-02-10T07:27:58;25.00;;;14.55;;
77280;SDS011;66339;47.262;17.144;2023-02-10T07:30:32;28.25;;;13.43;;
77280;SDS011;66339;47.262;17.144;2023-02-10T07:33:08;23.17;;;13.75;;
77280;SDS011;66339;47.262;17.144;2023-02-10T07:35:43;21.05;;;13.15;;
77280;SDS011;66339;47.262;17.144;2023-02-10T07:38:15;22.60;;;13.27;;
77280;SDS011;66339;47.262;17.144;2023-02-10T07:40:48;23.50;;;13.48;;
77280;SDS011;66339;47.262;17.144;2023-02-10T07:43:15;27.45;;;14.40;;
77280;SDS011;66339;47.262;17.144;2023-02-10T07:45:48;22.65;;;12.60;;
77280;SDS011;66339;47.262;17.144;2023-02-10T07:48:21;23.80;;;12.80;;
77280;SDS011;66339;47.262;17.144;2023-02-10T07:50:49;21.75;;;11.90;;
77280;SDS011;66339;47.262;17.144;2023-02-10T07:53:20;24.90;;;12.32;;
77280;SDS011;66339;47.262;17.144;2023-02-10T07:55:53;23.35;;;11.93;;
77280;SDS011;66339;47.262;17.144;2023-02-10T08:00:57;20.27;;;11.25;;
77280;SDS011;66339;47.262;17.144;2023-02-10T08:03:31;19.58;;;11.27;;
77280;SDS011;66339;47.262;17.144;2023-02-10T08:06:03;14.93;;;9.80;;
77280;SDS011;66339;47.262;17.144;2023-02-10T08:08:39;16.25;;;10.35;;
77280;SDS011;66339;47.262;17.144;2023-02-10T08:11:06;20.30;;;10.68;;
77280;SDS011;66339;47.262;17.144;2023-02-10T08:13:36;17.05;;;10.63;;
77280;SDS011;66339;47.262;17.144;2023-02-10T08:16:04;18.35;;;10.65;;
77280;SDS011;66339;47.262;17.144;2023-02-10T08:18:35;13.62;;;9.50;;
77280;SDS011;66339;47.262;17.144;2023-02-10T08:21:05;16.05;;;9.23;;
77280;SDS011;66339;47.262;17.144;2023-02-10T08:23:32;22.77;;;9.38;;
77280;SDS011;66339;47.262;17.144;2023-02-10T08:26:02;16.75;;;9.38;;
77280;SDS011;66339;47.262;17.144;2023-02-10T08:28:38;21.77;;;9.80;;
77280;SDS011;66339;47.262;17.144;2023-02-10T08:31:11;18.85;;;10.20;;
77280;SDS011;66339;47.262;17.144;2023-02-10T08:33:47;18.15;;;9.00;;
77280;SDS011;66339;47.262;17.144;2023-02-10T08:36:21;19.50;;;9.77;;
77280;SDS011;66339;47.262;17.144;2023-02-10T08:38:49;24.50;;;9.43;;
77280;SDS011;66339;47.262;17.144;2023-02-10T08:41:17;23.00;;;9.65;;
77280;SDS011;66339;47.262;17.144;2023-02-10T08:43:50;33.22;;;11.70;;
77280;SDS011;66339;47.262;17.144;2023-02-10T08:46:26;20.05;;;10.45;;
77280;SDS011;66339;47.262;17.144;2023-02-10T08:48:56;16.60;;;8.98;;
77280;SDS011;66339;47.262;17.144;2023-02-10T08:51:29;19.35;;;8.55;;
77280;SDS011;66339;47.262;17.144;2023-02-10T08:54:00;18.00;;;8.88;;
77280;SDS011;66339;47.262;17.144;2023-02-10T08:56:34;17.60;;;8.55;;
77280;SDS011;66339;47.262;17.144;2023-02-10T08:59:11;17.27;;;8.57;;
77280;SDS011;66339;47.262;17.144;2023-02-10T09:01:50;18.42;;;8.93;;
77280;SDS011;66339;47.262;17.144;2023-02-10T09:04:26;17.17;;;8.75;;
77280;SDS011;66339;47.262;17.144;2023-02-10T09:06:57;16.02;;;9.18;;
77280;SDS011;66339;47.262;17.144;2023-02-10T09:09:27;20.37;;;8.60;;
77280;SDS011;66339;47.262;17.144;2023-02-10T09:12:04;16.08;;;8.90;;
77280;SDS011;66339;47.262;17.144;2023-02-10T09:14:35;17.65;;;9.32;;
77280;SDS011;66339;47.262;17.144;2023-02-10T09:17:12;17.33;;;9.93;;
77280;SDS011;66339;47.262;17.144;2023-02-10T09:19:47;15.27;;;8.38;;
77280;SDS011;66339;47.262;17.144;2023-02-10T09:22:21;15.30;;;8.20;;
77280;SDS011;66339;47.262;17.144;2023-02-10T09:24:54;16.45;;;9.50;;
77280;SDS011;66339;47.262;17.144;2023-02-10T09:27:27;18.95;;;9.55;;
77280;SDS011;66339;47.262;17.144;2023-02-10T09:29:56;16.90;;;9.32;;
77280;SDS011;66339;47.262;17.144;2023-02-10T09:32:26;24.23;;;9.00;;
77280;SDS011;66339;47.262;17.144;2023-02-10T09:34:56;16.15;;;8.63;;
77280;SDS011;66339;47.262;17.144;2023-02-10T09:37:27;13.93;;;8.93;;
77280;SDS011;66339;47.262;17.144;2023-02-10T09:40:04;16.20;;;9.50;;
77280;SDS011;66339;47.262;17.144;2023-02-10T09:45:34;19.30;;;8.88;;
77280;SDS011;66339;47.262;17.144;2023-02-10T09:48:24;23.70;;;8.85;;
77280;SDS011;66339;47.262;17.144;2023-02-10T09:51:08;18.23;;;8.18;;
77280;SDS011;66339;47.262;17.144;2023-02-10T09:53:45;16.33;;;8.52;;
77280;SDS011;66339;47.262;17.144;2023-02-10T09:56:25;15.82;;;8.15;;
77280;SDS011;66339;47.262;17.144;2023-02-10T09:58:53;22.20;;;8.73;;
77280;SDS011;66339;47.262;17.144;2023-02-10T10:01:33;16.95;;;8.35;;
77280;SDS011;66339;47.262;17.144;2023-02-10T10:04:23;16.00;;;8.25;;
77280;SDS011;66339;47.262;17.144;2023-02-10T10:07:21;14.57;;;7.50;;
77280;SDS011;66339;47.262;17.144;2023-02-10T10:10:14;13.98;;;8.57;;
77280;SDS011;66339;47.262;17.144;2023-02-10T10:12:48;14.60;;;7.70;;
77280;SDS011;66339;47.262;17.144;2023-02-10T10:18:08;14.87;;;8.55;;
77280;SDS011;66339;47.262;17.144;2023-02-10T10:21:10;15.13;;;8.00;;
77280;SDS011;66339;47.262;17.144;2023-02-10T10:29:47;23.25;;;8.48;;
77280;SDS011;66339;47.262;17.144;2023-02-10T10:35:40;11.25;;;7.20;;
77280;SDS011;66339;47.262;17.144;2023-02-10T10:38:19;13.45;;;7.43;;
77280;SDS011;66339;47.262;17.144;2023-02-10T10:40:59;12.45;;;7.68;;
77280;SDS011;66339;47.262;17.144;2023-02-10T10:43:33;15.07;;;7.35;;
77280;SDS011;66339;47.262;17.144;2023-02-10T10:46:33;11.52;;;7.40;;
77280;SDS011;66339;47.262;17.144;2023-02-10T10:49:11;11.65;;;6.75;;
77280;SDS011;66339;47.262;17.144;2023-02-10T10:51:42;14.52;;;7.72;;
77280;SDS011;66339;47.262;17.144;2023-02-10T10:54:12;14.45;;;7.25;;
77280;SDS011;66339;47.262;17.144;2023-02-10T10:56:53;9.73;;;7.15;;
77280;SDS011;66339;47.262;17.144;2023-02-10T10:59:34;13.57;;;6.80;;
77280;SDS011;66339;47.262;17.144;2023-02-10T11:02:16;11.12;;;7.15;;
77280;SDS011;66339;47.262;17.144;2023-02-10T11:04:59;11.95;;;7.50;;
77280;SDS011;66339;47.262;17.144;2023-02-10T11:07:37;12.25;;;7.30;;
77280;SDS011;66339;47.262;17.144;2023-02-10T11:10:37;10.25;;;6.60;;
77280;SDS011;66339;47.262;17.144;2023-02-10T11:13:25;11.80;;;7.25;;
77280;SDS011;66339;47.262;17.144;2023-02-10T11:16:18;12.32;;;6.95;;
77280;SDS011;66339;47.262;17.144;2023-02-10T11:18:52;12.93;;;7.22;;
77280;SDS011;66339;47.262;17.144;2023-02-10T11:21:38;37.97;;;7.93;;
77280;SDS011;66339;47.262;17.144;2023-02-10T11:24:25;18.47;;;7.27;;
77280;SDS011;66339;47.262;17.144;2023-02-10T11:29:35;10.55;;;6.53;;
77280;SDS011;66339;47.262;17.144;2023-02-10T11:32:39;13.77;;;6.93;;
77280;SDS011;66339;47.262;17.144;2023-02-10T11:35:15;12.98;;;6.78;;
77280;SDS011;66339;47.262;17.144;2023-02-10T11:37:57;12.13;;;7.03;;
77280;SDS011;66339;47.262;17.144;2023-02-10T11:43:28;13.57;;;7.00;;
77280;SDS011;66339;47.262;17.144;2023-02-10T11:46:05;13.75;;;6.68;;
77280;SDS011;66339;47.262;17.144;2023-02-10T11:49:11;12.95;;;6.90;;
77280;SDS011;66339;47.262;17.144;2023-02-10T11:51:54;18.65;;;6.68;;
77280;SDS011;66339;47.262;17.144;2023-02-10T11:54:25;11.88;;;6.40;;
77280;SDS011;66339;47.262;17.144;2023-02-10T11:57:01;13.23;;;6.70;;
77280;SDS011;66339;47.262;17.144;2023-02-10T11:59:54;11.93;;;6.57;;
77280;SDS011;66339;47.262;17.144;2023-02-10T12:05:37;15.30;;;6.53;;
77280;SDS011;66339;47.262;17.144;2023-02-10T12:28:46;16.60;;;9.00;;
77280;SDS011;66339;47.262;17.144;2023-02-10T12:34:33;17.05;;;8.52;;
77280;SDS011;66339;47.262;17.144;2023-02-10T12:40:10;13.35;;;7.62;;
77280;SDS011;66339;47.262;17.144;2023-02-10T12:43:01;15.98;;;7.43;;
77280;SDS011;66339;47.262;17.144;2023-02-10T12:45:42;18.30;;;7.07;;
77280;SDS011;66339;47.262;17.144;2023-02-10T12:59:55;14.05;;;7.18;;
77280;SDS011;66339;47.262;17.144;2023-02-10T13:05:20;18.48;;;6.82;;
77280;SDS011;66339;47.262;17.144;2023-02-10T13:07:55;15.88;;;6.57;;
77280;SDS011;66339;47.262;17.144;2023-02-10T13:10:37;15.02;;;6.90;;
77280;SDS011;66339;47.262;17.144;2023-02-10T13:13:27;19.67;;;7.15;;
77280;SDS011;66339;47.262;17.144;2023-02-10T13:16:43;14.38;;;7.28;;
77280;SDS011;66339;47.262;17.144;2023-02-10T13:18:59;14.75;;;6.93;;
77280;SDS011;66339;47.262;17.144;2023-02-10T13:21:56;11.18;;;6.45;;
77280;SDS011;66339;47.262;17.144;2023-02-10T13:24:34;17.25;;;6.97;;
77280;SDS011;66339;47.262;17.144;2023-02-10T13:30:06;12.15;;;6.45;;
77280;SDS011;66339;47.262;17.144;2023-02-10T13:32:52;11.98;;;6.12;;
77280;SDS011;66339;47.262;17.144;2023-02-10T13:35:23;9.38;;;6.18;;
77280;SDS011;66339;47.262;17.144;2023-02-10T13:38:01;10.00;;;6.45;;
77280;SDS011;66339;47.262;17.144;2023-02-10T13:43:33;11.48;;;6.05;;
77280;SDS011;66339;47.262;17.144;2023-02-10T13:46:14;18.50;;;8.07;;
77280;SDS011;66339;47.262;17.144;2023-02-10T13:49:03;27.42;;;7.82;;
77280;SDS011;66339;47.262;17.144;2023-02-10T13:51:32;21.70;;;7.07;;
77280;SDS011;66339;47.262;17.144;2023-02-10T13:54:22;31.35;;;7.40;;
77280;SDS011;66339;47.262;17.144;2023-02-10T13:57:20;16.08;;;7.00;;
77280;SDS011;66339;47.262;17.144;2023-02-10T14:00:14;19.20;;;7.45;;
77280;SDS011;66339;47.262;17.144;2023-02-10T14:06:04;20.30;;;6.78;;
77280;SDS011;66339;47.262;17.144;2023-02-10T14:08:52;21.70;;;7.45;;
77280;SDS011;66339;47.262;17.144;2023-02-10T14:11:38;15.15;;;6.90;;
77280;SDS011;66339;47.262;17.144;2023-02-10T14:14:19;25.02;;;6.35;;
77280;SDS011;66339;47.262;17.144;2023-02-10T14:16:50;17.05;;;6.65;;
77280;SDS011;66339;47.262;17.144;2023-02-10T14:19:28;17.05;;;6.25;;
77280;SDS011;66339;47.262;17.144;2023-02-10T14:22:01;15.75;;;6.25;;
77280;SDS011;66339;47.262;17.144;2023-02-10T14:24:36;16.83;;;6.22;;
77280;SDS011;66339;47.262;17.144;2023-02-10T14:27:17;13.15;;;6.40;;
77280;SDS011;66339;47.262;17.144;2023-02-10T14:29:56;13.75;;;6.22;;
77280;SDS011;66339;47.262;17.144;2023-02-10T14:32:31;19.15;;;6.65;;
77280;SDS011;66339;47.262;17.144;2023-02-10T14:35:19;17.55;;;6.10;;
77280;SDS011;66339;47.262;17.144;2023-02-10T14:37:55;19.70;;;6.68;;
77280;SDS011;66339;47.262;17.144;2023-02-10T14:40:25;14.57;;;6.05;;
77280;SDS011;66339;47.262;17.144;2023-02-10T14:42:54;14.80;;;5.68;;
77280;SDS011;66339;47.262;17.144;2023-02-10T14:45:29;13.40;;;5.82;;
77280;SDS011;66339;47.262;17.144;2023-02-10T14:47:59;18.95;;;6.32;;
77280;SDS011;66339;47.262;17.144;2023-02-10T14:50:31;12.10;;;5.82;;
77280;SDS011;66339;47.262;17.144;2023-02-10T14:53:14;12.55;;;5.70;;
77280;SDS011;66339;47.262;17.144;2023-02-10T14:55:53;12.45;;;5.87;;
77280;SDS011;66339;47.262;17.144;2023-02-10T14:58:30;12.65;;;6.22;;
77280;SDS011;66339;47.262;17.144;2023-02-10T15:01:02;9.48;;;5.57;;
77280;SDS011;66339;47.262;17.144;2023-02-10T15:03:41;8.75;;;5.45;;
77280;SDS011;66339;47.262;17.144;2023-02-10T15:06:17;12.55;;;5.32;;
77280;SDS011;66339;47.262;17.144;2023-02-10T15:08:51;9.02;;;5.22;;
77280;SDS011;66339;47.262;17.144;2023-02-10T15:11:32;13.73;;;5.65;;
77280;SDS011;66339;47.262;17.144;2023-02-10T15:14:04;13.93;;;5.50;;
77280;SDS011;66339;47.262;17.144;2023-02-10T15:16:50;10.57;;;5.78;;
77280;SDS011;66339;47.262;17.144;2023-02-10T15:19:26;11.68;;;5.68;;
77280;SDS011;66339;47.262;17.144;2023-02-10T15:22:01;11.32;;;5.47;;
77280;SDS011;66339;47.262;17.144;2023-02-10T15:24:50;10.73;;;5.93;;
77280;SDS011;66339;47.262;17.144;2023-02-10T15:27:21;14.73;;;5.70;;
77280;SDS011;66339;47.262;17.144;2023-02-10T15:30:05;16.20;;;6.65;;
77280;SDS011;66339;47.262;17.144;2023-02-10T15:32:37;23.50;;;5.85;;
77280;SDS011;66339;47.262;17.144;2023-02-10T15:37:40;11.15;;;6.45;;
77280;SDS011;66339;47.262;17.144;2023-02-10T15:40:16;13.20;;;6.57;;
77280;SDS011;66339;47.262;17.144;2023-02-10T15:43:20;13.20;;;6.30;;
77280;SDS011;66339;47.262;17.144;2023-02-10T15:45:36;15.35;;;7.18;;
77280;SDS011;66339;47.262;17.144;2023-02-10T15:48:14;14.05;;;6.20;;
77280;SDS011;66339;47.262;17.144;2023-02-10T15:51:07;11.05;;;6.03;;
77280;SDS011;66339;47.262;17.144;2023-02-10T15:53:50;12.95;;;5.95;;
77280;SDS011;66339;47.262;17.144;2023-02-10T15:56:23;15.07;;;6.00;;
77280;SDS011;66339;47.262;17.144;2023-02-10T15:58:51;15.75;;;6.50;;
77280;SDS011;66339;47.262;17.144;2023-02-10T16:01:18;14.18;;;7.80;;
77280;SDS011;66339;47.262;17.144;2023-02-10T16:03:53;13.52;;;7.80;;
77280;SDS011;66339;47.262;17.144;2023-02-10T16:06:21;11.60;;;6.85;;
77280;SDS011;66339;47.262;17.144;2023-02-10T16:08:55;15.02;;;7.40;;
77280;SDS011;66339;47.262;17.144;2023-02-10T16:11:23;15.70;;;7.07;;
77280;SDS011;66339;47.262;17.144;2023-02-10T16:13:54;15.75;;;7.25;;
77280;SDS011;66339;47.262;17.144;2023-02-10T16:16:31;15.80;;;6.68;;
77280;SDS011;66339;47.262;17.144;2023-02-10T16:18:59;13.20;;;7.32;;
77280;SDS011;66339;47.262;17.144;2023-02-10T16:21:30;15.20;;;7.35;;
77280;SDS011;66339;47.262;17.144;2023-02-10T16:23:57;19.25;;;7.65;;
77280;SDS011;66339;47.262;17.144;2023-02-10T16:26:27;16.55;;;7.70;;
77280;SDS011;66339;47.262;17.144;2023-02-10T16:29:00;17.37;;;8.63;;
77280;SDS011;66339;47.262;17.144;2023-02-10T16:31:29;13.90;;;7.57;;
77280;SDS011;66339;47.262;17.144;2023-02-10T16:34:01;16.65;;;9.00;;
77280;SDS011;66339;47.262;17.144;2023-02-10T16:36:28;15.32;;;8.77;;
77280;SDS011;66339;47.262;17.144;2023-02-10T16:39:05;16.98;;;8.35;;
77280;SDS011;66339;47.262;17.144;2023-02-10T16:41:51;16.85;;;8.70;;
77280;SDS011;66339;47.262;17.144;2023-02-10T16:44:21;16.55;;;10.43;;
77280;SDS011;66339;47.262;17.144;2023-02-10T16:46:56;17.17;;;9.93;;
77280;SDS011;66339;47.262;17.144;2023-02-10T16:49:23;18.60;;;9.63;;
77280;SDS011;66339;47.262;17.144;2023-02-10T16:51:53;18.20;;;10.75;;
77280;SDS011;66339;47.262;17.144;2023-02-10T16:54:28;22.20;;;10.40;;
77280;SDS011;66339;47.262;17.144;2023-02-10T16:56:58;22.98;;;10.75;;
77280;SDS011;66339;47.262;17.144;2023-02-10T16:59:32;16.73;;;11.02;;
77280;SDS011;66339;47.262;17.144;2023-02-10T17:02:05;21.73;;;12.20;;
77280;SDS011;66339;47.262;17.144;2023-02-10T17:04:38;19.83;;;12.80;;
77280;SDS011;66339;47.262;17.144;2023-02-10T17:07:05;16.90;;;12.98;;